sensor_id;sensor_type;location;lat;lon;timestamp;temperature;humidity
50067;DHT22;35952;52.524;13.340;2023-08-21T00:00:16;23.10;99.90
50067;DHT22;35952;52.524;13.340;2023-08-21T00:02:42;23.10;99.90
50067;DHT22;35952;52.524;13.340;2023-08-21T00:05:07;23.10;99.90
50067;DHT22;35952;52.524;13.340;2023-08-21T00:07:33;23.10;99.90
50067;DHT22;35952;52.524;13.340;2023-08-21T00:09:58;23.10;99.90
50067;DHT22;35952;52.524;13.340;2023-08-21T00:12:24;23.10;99.90
50067;DHT22;35952;52.524;13.340;2023-08-21T00:14:49;23.00;99.90
50067;DHT22;35952;52.524;13.340;2023-08-21T00:17:15;22.90;99.90
50067;DHT22;35952;52.524;13.340;2023-08-21T00:19:40;22.90;99.90
50067;DHT22;35952;52.524;13.340;2023-08-21T00:22:06;22.70;99.90
50067;DHT22;35952;52.524;13.340;2023-08-21T00:24:31;22.80;99.90
50067;DHT22;35952;52.524;13.340;2023-08-21T00:26:57;22.90;99.90
50067;DHT22;35952;52.524;13.340;2023-08-21T00:29:22;22.70;99.90
50067;DHT22;35952;52.524;13.340;2023-08-21T00:31:48;22.80;99.90
50067;DHT22;35952;52.524;13.340;2023-08-21T00:34:13;22.90;99.90
50067;DHT22;35952;52.524;13.340;2023-08-21T00:36:39;22.80;99.90
50067;DHT22;35952;52.524;13.340;2023-08-21T00:39:04;22.70;99.90
50067;DHT22;35952;52.524;13.340;2023-08-21T00:41:30;22.60;99.90
50067;DHT22;35952;52.524;13.340;2023-08-21T00:43:56;22.60;99.90
50067;DHT22;35952;52.524;13.340;2023-08-21T00:46:21;22.60;99.90
50067;DHT22;35952;52.524;13.340;2023-08-21T00:48:47;22.60;99.90
50067;DHT22;35952;52.524;13.340;2023-08-21T00:51:14;22.60;99.90
50067;DHT22;35952;52.524;13.340;2023-08-21T00:53:41;22.60;99.90
50067;DHT22;35952;52.524;13.340;2023-08-21T00:56:07;22.60;99.90
50067;DHT22;35952;52.524;13.340;2023-08-21T00:58:32;22.70;99.90
50067;DHT22;35952;52.524;13.340;2023-08-21T01:00:58;22.60;99.90
50067;DHT22;35952;52.524;13.340;2023-08-21T01:03:24;22.60;99.90
50067;DHT22;35952;52.524;13.340;2023-08-21T01:05:50;22.60;99.90
50067;DHT22;35952;52.524;13.340;2023-08-21T01:11:35;22.60;99.90
50067;DHT22;35952;52.524;13.340;2023-08-21T01:16:56;22.40;99.90
50067;DHT22;35952;52.524;13.340;2023-08-21T01:19:44;22.40;99.90
50067;DHT22;35952;52.524;13.340;2023-08-21T01:22:11;22.40;99.90
50067;DHT22;35952;52.524;13.340;2023-08-21T01:24:37;22.30;99.90
50067;DHT22;35952;52.524;13.340;2023-08-21T01:27:03;22.20;99.90
50067;DHT22;35952;52.524;13.340;2023-08-21T01:29:29;22.20;99.90
50067;DHT22;35952;52.524;13.340;2023-08-21T01:34:26;22.20;99.90
50067;DHT22;35952;52.524;13.340;2023-08-21T01:36:53;22.20;99.90
50067;DHT22;35952;52.524;13.340;2023-08-21T01:39:19;22.20;99.90
50067;DHT22;35952;52.524;13.340;2023-08-21T01:41:45;22.20;99.90
50067;DHT22;35952;52.524;13.340;2023-08-21T01:44:10;22.20;99.90
50067;DHT22;35952;52.524;13.340;2023-08-21T01:46:36;22.30;99.90
50067;DHT22;35952;52.524;13.340;2023-08-21T01:49:01;22.30;99.90
50067;DHT22;35952;52.524;13.340;2023-08-21T01:51:27;22.40;99.90
50067;DHT22;35952;52.524;13.340;2023-08-21T01:53:52;22.30;99.90
50067;DHT22;35952;52.524;13.340;2023-08-21T01:56:18;22.20;99.90
50067;DHT22;35952;52.524;13.340;2023-08-21T01:58:44;22.20;99.90
50067;DHT22;35952;52.524;13.340;2023-08-21T02:01:09;22.20;99.90
50067;DHT22;35952;52.524;13.340;2023-08-21T02:03:35;22.20;99.90
50067;DHT22;35952;52.524;13.340;2023-08-21T02:06:01;22.20;99.90
50067;DHT22;35952;52.524;13.340;2023-08-21T02:08:33;22.20;99.90
50067;DHT22;35952;52.524;13.340;2023-08-21T02:10:59;22.20;99.90
50067;DHT22;35952;52.524;13.340;2023-08-21T02:13:24;22.20;99.90
50067;DHT22;35952;52.524;13.340;2023-08-21T02:15:50;22.20;99.90
50067;DHT22;35952;52.524;13.340;2023-08-21T02:18:15;22.20;99.90
50067;DHT22;35952;52.524;13.340;2023-08-21T02:20:41;22.30;99.90
50067;DHT22;35952;52.524;13.340;2023-08-21T02:23:07;22.20;99.90
50067;DHT22;35952;52.524;13.340;2023-08-21T02:25:33;22.20;99.90
50067;DHT22;35952;52.524;13.340;2023-08-21T02:27:58;22.20;99.90
50067;DHT22;35952;52.524;13.340;2023-08-21T02:30:24;22.20;99.90
50067;DHT22;35952;52.524;13.340;2023-08-21T02:32:53;22.20;99.90
50067;DHT22;35952;52.524;13.340;2023-08-21T02:35:19;22.20;99.90
50067;DHT22;35952;52.524;13.340;2023-08-21T02:37:45;22.20;99.90
50067;DHT22;35952;52.524;13.340;2023-08-21T02:40:10;22.10;99.90
50067;DHT22;35952;52.524;13.340;2023-08-21T02:42:36;22.20;99.90
50067;DHT22;35952;52.524;13.340;2023-08-21T02:45:02;22.10;99.90
50067;DHT22;35952;52.524;13.340;2023-08-21T02:47:29;22.20;99.90
50067;DHT22;35952;52.524;13.340;2023-08-21T02:49:55;22.20;99.90
50067;DHT22;35952;52.524;13.340;2023-08-21T02:52:20;22.20;99.90
50067;DHT22;35952;52.524;13.340;2023-08-21T02:54:46;22.20;99.90
50067;DHT22;35952;52.524;13.340;2023-08-21T02:57:11;22.30;99.90
50067;DHT22;35952;52.524;13.340;2023-08-21T02:59:37;22.20;99.90
50067;DHT22;35952;52.524;13.340;2023-08-21T03:02:02;22.10;99.90
50067;DHT22;35952;52.524;13.340;2023-08-21T03:04:28;22.20;99.90
50067;DHT22;35952;52.524;13.340;2023-08-21T03:06:53;22.20;99.90
50067;DHT22;35952;52.524;13.340;2023-08-21T03:09:21;22.10;99.90
50067;DHT22;35952;52.524;13.340;2023-08-21T03:11:46;22.20;99.90
50067;DHT22;35952;52.524;13.340;2023-08-21T03:14:12;22.20;99.90
50067;DHT22;35952;52.524;13.340;2023-08-21T03:16:37;22.10;99.90
50067;DHT22;35952;52.524;13.340;2023-08-21T03:19:03;22.00;99.90
50067;DHT22;35952;52.524;13.340;2023-08-21T03:21:28;22.00;99.90
50067;DHT22;35952;52.524;13.340;2023-08-21T03:23:56;22.10;99.90
50067;DHT22;35952;52.524;13.340;2023-08-21T03:26:23;22.10;99.90
50067;DHT22;35952;52.524;13.340;2023-08-21T03:28:48;22.10;99.90
50067;DHT22;35952;52.524;13.340;2023-08-21T03:31:14;22.10;99.90
50067;DHT22;35952;52.524;13.340;2023-08-21T03:33:40;22.10;99.90
50067;DHT22;35952;52.524;13.340;2023-08-21T03:36:06;22.10;99.90
50067;DHT22;35952;52.524;13.340;2023-08-21T03:38:32;22.10;99.90
50067;DHT22;35952;52.524;13.340;2023-08-21T03:40:58;22.20;99.90
50067;DHT22;35952;52.524;13.340;2023-08-21T03:43:24;22.10;99.90
50067;DHT22;35952;52.524;13.340;2023-08-21T03:45:49;22.10;99.90
50067;DHT22;35952;52.524;13.340;2023-08-21T03:48:15;22.00;99.90
50067;DHT22;35952;52.524;13.340;2023-08-21T03:50:40;21.90;99.90
50067;DHT22;35952;52.524;13.340;2023-08-21T03:53:06;21.90;99.90
50067;DHT22;35952;52.524;13.340;2023-08-21T03:55:31;21.90;99.90
50067;DHT22;35952;52.524;13.340;2023-08-21T03:57:57;21.90;99.90
50067;DHT22;35952;52.524;13.340;2023-08-21T04:00:22;21.90;99.90
50067;DHT22;35952;52.524;13.340;2023-08-21T04:02:48;21.90;99.90
50067;DHT22;35952;52.524;13.340;2023-08-21T04:05:13;22.00;99.90
50067;DHT22;35952;52.524;13.340;2023-08-21T04:07:39;21.90;99.90
50067;DHT22;35952;52.524;13.340;2023-08-21T04:10:06;21.90;99.90
50067;DHT22;35952;52.524;13.340;2023-08-21T04:12:31;22.00;99.90
50067;DHT22;35952;52.524;13.340;2023-08-21T04:14:57;22.00;99.90
50067;DHT22;35952;52.524;13.340;2023-08-21T04:17:23;22.00;99.90
50067;DHT22;35952;52.524;13.340;2023-08-21T04:19:50;22.00;99.90
50067;DHT22;35952;52.524;13.340;2023-08-21T04:22:15;22.00;99.90
50067;DHT22;35952;52.524;13.340;2023-08-21T04:24:41;22.20;99.90
50067;DHT22;35952;52.524;13.340;2023-08-21T04:27:07;22.30;99.90
50067;DHT22;35952;52.524;13.340;2023-08-21T04:29:33;22.40;99.90
50067;DHT22;35952;52.524;13.340;2023-08-21T04:31:58;22.50;99.90
50067;DHT22;35952;52.524;13.340;2023-08-21T04:34:24;22.60;99.90
50067;DHT22;35952;52.524;13.340;2023-08-21T04:36:49;22.70;99.90
50067;DHT22;35952;52.524;13.340;2023-08-21T04:39:15;22.70;99.90
50067;DHT22;35952;52.524;13.340;2023-08-21T04:41:42;22.60;99.90
50067;DHT22;35952;52.524;13.340;2023-08-21T04:44:07;22.60;99.90
50067;DHT22;35952;52.524;13.340;2023-08-21T04:46:33;22.60;99.90
50067;DHT22;35952;52.524;13.340;2023-08-21T04:48:58;22.70;99.90
50067;DHT22;35952;52.524;13.340;2023-08-21T04:51:24;22.70;99.90
50067;DHT22;35952;52.524;13.340;2023-08-21T04:53:49;22.80;99.90
50067;DHT22;35952;52.524;13.340;2023-08-21T04:56:15;22.90;99.90
50067;DHT22;35952;52.524;13.340;2023-08-21T04:58:41;22.80;99.90
50067;DHT22;35952;52.524;13.340;2023-08-21T05:01:06;22.90;99.90
50067;DHT22;35952;52.524;13.340;2023-08-21T05:03:32;22.80;99.90
50067;DHT22;35952;52.524;13.340;2023-08-21T05:05:57;22.80;99.90
50067;DHT22;35952;52.524;13.340;2023-08-21T05:08:24;22.90;99.90
50067;DHT22;35952;52.524;13.340;2023-08-21T05:10:59;23.00;99.90
50067;DHT22;35952;52.524;13.340;2023-08-21T05:13:25;23.00;99.90
50067;DHT22;35952;52.524;13.340;2023-08-21T05:15:52;22.90;99.90
50067;DHT22;35952;52.524;13.340;2023-08-21T05:18:19;22.90;99.90
50067;DHT22;35952;52.524;13.340;2023-08-21T05:20:44;22.90;99.90
50067;DHT22;35952;52.524;13.340;2023-08-21T05:23:10;22.80;99.90
50067;DHT22;35952;52.524;13.340;2023-08-21T05:25:35;23.00;99.90
50067;DHT22;35952;52.524;13.340;2023-08-21T05:28:01;23.30;99.90
50067;DHT22;35952;52.524;13.340;2023-08-21T05:30:27;23.90;99.90
50067;DHT22;35952;52.524;13.340;2023-08-21T05:32:52;24.80;99.90
50067;DHT22;35952;52.524;13.340;2023-08-21T05:35:18;25.50;99.90
50067;DHT22;35952;52.524;13.340;2023-08-21T05:37:44;25.30;99.90
50067;DHT22;35952;52.524;13.340;2023-08-21T05:40:10;26.10;99.90
50067;DHT22;35952;52.524;13.340;2023-08-21T05:42:36;27.00;99.90
50067;DHT22;35952;52.524;13.340;2023-08-21T05:45:01;28.00;99.90
50067;DHT22;35952;52.524;13.340;2023-08-21T05:47:27;28.70;99.90
50067;DHT22;35952;52.524;13.340;2023-08-21T05:49:53;28.20;99.90
50067;DHT22;35952;52.524;13.340;2023-08-21T05:52:19;27.60;99.90
50067;DHT22;35952;52.524;13.340;2023-08-21T05:54:44;27.00;99.90
50067;DHT22;35952;52.524;13.340;2023-08-21T05:57:10;26.40;99.90
50067;DHT22;35952;52.524;13.340;2023-08-21T05:59:42;26.50;99.90
50067;DHT22;35952;52.524;13.340;2023-08-21T06:02:08;26.00;99.90
50067;DHT22;35952;52.524;13.340;2023-08-21T06:04:33;25.50;99.90
50067;DHT22;35952;52.524;13.340;2023-08-21T06:07:11;25.40;99.90
50067;DHT22;35952;52.524;13.340;2023-08-21T06:09:37;25.20;99.90
50067;DHT22;35952;52.524;13.340;2023-08-21T06:12:06;26.10;99.90
50067;DHT22;35952;52.524;13.340;2023-08-21T06:14:31;25.70;99.90
50067;DHT22;35952;52.524;13.340;2023-08-21T06:17:01;25.90;99.90
50067;DHT22;35952;52.524;13.340;2023-08-21T06:19:27;25.90;99.90
50067;DHT22;35952;52.524;13.340;2023-08-21T06:21:54;25.90;99.90
50067;DHT22;35952;52.524;13.340;2023-08-21T06:24:20;26.00;99.90
50067;DHT22;35952;52.524;13.340;2023-08-21T06:26:45;25.90;99.90
50067;DHT22;35952;52.524;13.340;2023-08-21T06:29:11;25.80;99.90
50067;DHT22;35952;52.524;13.340;2023-08-21T06:31:36;25.70;99.90
50067;DHT22;35952;52.524;13.340;2023-08-21T06:34:02;25.90;99.90
50067;DHT22;35952;52.524;13.340;2023-08-21T06:36:27;25.90;99.90
50067;DHT22;35952;52.524;13.340;2023-08-21T06:38:53;25.80;99.90
50067;DHT22;35952;52.524;13.340;2023-08-21T06:41:18;26.20;99.90
50067;DHT22;35952;52.524;13.340;2023-08-21T06:43:45;26.20;99.90
50067;DHT22;35952;52.524;13.340;2023-08-21T06:46:11;26.10;99.90
50067;DHT22;35952;52.524;13.340;2023-08-21T06:48:38;26.00;99.90
50067;DHT22;35952;52.524;13.340;2023-08-21T06:51:04;26.00;99.90
50067;DHT22;35952;52.524;13.340;2023-08-21T06:53:30;26.20;99.90
50067;DHT22;35952;52.524;13.340;2023-08-21T06:55:56;26.50;99.90
50067;DHT22;35952;52.524;13.340;2023-08-21T06:58:22;26.40;99.90
50067;DHT22;35952;52.524;13.340;2023-08-21T07:00:47;26.30;99.90
50067;DHT22;35952;52.524;13.340;2023-08-21T07:03:13;26.20;99.90
50067;DHT22;35952;52.524;13.340;2023-08-21T07:05:38;26.10;99.90
50067;DHT22;35952;52.524;13.340;2023-08-21T07:08:04;26.20;99.90
50067;DHT22;35952;52.524;13.340;2023-08-21T07:10:35;26.60;99.90
50067;DHT22;35952;52.524;13.340;2023-08-21T07:13:00;26.60;99.90
50067;DHT22;35952;52.524;13.340;2023-08-21T07:15:26;26.80;99.90
50067;DHT22;35952;52.524;13.340;2023-08-21T07:17:52;26.90;99.90
50067;DHT22;35952;52.524;13.340;2023-08-21T07:20:17;26.90;99.90
50067;DHT22;35952;52.524;13.340;2023-08-21T07:22:43;27.00;99.90
50067;DHT22;35952;52.524;13.340;2023-08-21T07:25:08;27.00;99.90
50067;DHT22;35952;52.524;13.340;2023-08-21T07:27:34;27.00;99.90
50067;DHT22;35952;52.524;13.340;2023-08-21T07:30:02;27.10;99.90
50067;DHT22;35952;52.524;13.340;2023-08-21T07:32:28;27.60;99.90
50067;DHT22;35952;52.524;13.340;2023-08-21T07:34:54;28.20;99.90
50067;DHT22;35952;52.524;13.340;2023-08-21T07:37:20;29.00;99.90
50067;DHT22;35952;52.524;13.340;2023-08-21T07:39:45;30.10;99.90
50067;DHT22;35952;52.524;13.340;2023-08-21T07:42:11;30.40;99.90
50067;DHT22;35952;52.524;13.340;2023-08-21T07:44:39;30.30;99.90
50067;DHT22;35952;52.524;13.340;2023-08-21T07:47:04;29.90;99.90
50067;DHT22;35952;52.524;13.340;2023-08-21T07:49:33;29.70;99.90
50067;DHT22;35952;52.524;13.340;2023-08-21T07:51:59;29.40;99.90
50067;DHT22;35952;52.524;13.340;2023-08-21T07:54:24;28.80;99.90
50067;DHT22;35952;52.524;13.340;2023-08-21T07:56:50;28.40;99.90
50067;DHT22;35952;52.524;13.340;2023-08-21T07:59:16;28.10;99.90
50067;DHT22;35952;52.524;13.340;2023-08-21T08:01:42;27.80;99.90
50067;DHT22;35952;52.524;13.340;2023-08-21T08:04:08;27.50;99.90
50067;DHT22;35952;52.524;13.340;2023-08-21T08:06:33;27.30;99.90
50067;DHT22;35952;52.524;13.340;2023-08-21T08:08:59;27.20;99.90
50067;DHT22;35952;52.524;13.340;2023-08-21T08:11:25;26.90;99.90
50067;DHT22;35952;52.524;13.340;2023-08-21T08:13:50;26.70;99.90
50067;DHT22;35952;52.524;13.340;2023-08-21T08:16:16;26.50;99.90
50067;DHT22;35952;52.524;13.340;2023-08-21T08:18:42;26.40;99.90
50067;DHT22;35952;52.524;13.340;2023-08-21T08:21:10;26.50;99.90
50067;DHT22;35952;52.524;13.340;2023-08-21T08:23:36;26.50;99.90
50067;DHT22;35952;52.524;13.340;2023-08-21T08:26:02;26.70;99.90
50067;DHT22;35952;52.524;13.340;2023-08-21T08:28:27;26.60;99.90
50067;DHT22;35952;52.524;13.340;2023-08-21T08:30:53;26.60;99.90
50067;DHT22;35952;52.524;13.340;2023-08-21T08:33:19;26.50;99.90
50067;DHT22;35952;52.524;13.340;2023-08-21T08:35:45;26.70;99.90
50067;DHT22;35952;52.524;13.340;2023-08-21T08:38:11;27.00;99.90
50067;DHT22;35952;52.524;13.340;2023-08-21T08:40:44;27.20;99.90
50067;DHT22;35952;52.524;13.340;2023-08-21T08:43:11;27.30;99.90
50067;DHT22;35952;52.524;13.340;2023-08-21T08:45:37;27.50;95.90
50067;DHT22;35952;52.524;13.340;2023-08-21T08:48:04;27.50;94.00
50067;DHT22;35952;52.524;13.340;2023-08-21T08:50:31;27.50;94.50
50067;DHT22;35952;52.524;13.340;2023-08-21T08:52:58;27.70;93.90
50067;DHT22;35952;52.524;13.340;2023-08-21T08:55:24;28.00;91.80
50067;DHT22;35952;52.524;13.340;2023-08-21T08:57:51;28.30;90.10
50067;DHT22;35952;52.524;13.340;2023-08-21T09:00:17;28.60;88.50
50067;DHT22;35952;52.524;13.340;2023-08-21T09:02:43;28.70;89.40
50067;DHT22;35952;52.524;13.340;2023-08-21T09:05:08;28.60;84.90
50067;DHT22;35952;52.524;13.340;2023-08-21T09:07:35;28.40;87.00
50067;DHT22;35952;52.524;13.340;2023-08-21T09:10:01;28.40;87.70
50067;DHT22;35952;52.524;13.340;2023-08-21T09:12:31;28.20;88.50
50067;DHT22;35952;52.524;13.340;2023-08-21T09:14:59;28.50;84.30
50067;DHT22;35952;52.524;13.340;2023-08-21T09:17:26;28.30;83.60
50067;DHT22;35952;52.524;13.340;2023-08-21T09:19:51;28.30;85.40
50067;DHT22;35952;52.524;13.340;2023-08-21T09:22:18;28.40;83.00
50067;DHT22;35952;52.524;13.340;2023-08-21T09:25:03;29.10;81.30
50067;DHT22;35952;52.524;13.340;2023-08-21T09:27:33;29.30;80.30
50067;DHT22;35952;52.524;13.340;2023-08-21T09:30:01;29.30;82.00
50067;DHT22;35952;52.524;13.340;2023-08-21T09:32:27;29.60;80.40
50067;DHT22;35952;52.524;13.340;2023-08-21T09:34:53;30.10;78.50
50067;DHT22;35952;52.524;13.340;2023-08-21T09:37:18;30.20;76.60
50067;DHT22;35952;52.524;13.340;2023-08-21T09:39:44;29.80;74.90
50067;DHT22;35952;52.524;13.340;2023-08-21T09:42:10;29.60;76.10
50067;DHT22;35952;52.524;13.340;2023-08-21T09:44:39;29.40;75.40
50067;DHT22;35952;52.524;13.340;2023-08-21T09:47:10;29.10;77.60
50067;DHT22;35952;52.524;13.340;2023-08-21T09:49:37;29.00;78.40
50067;DHT22;35952;52.524;13.340;2023-08-21T09:52:08;28.60;78.80
50067;DHT22;35952;52.524;13.340;2023-08-21T09:54:38;28.50;79.50
50067;DHT22;35952;52.524;13.340;2023-08-21T09:57:05;28.40;80.30
50067;DHT22;35952;52.524;13.340;2023-08-21T09:59:33;28.50;80.20
50067;DHT22;35952;52.524;13.340;2023-08-21T10:02:00;28.50;80.00
50067;DHT22;35952;52.524;13.340;2023-08-21T10:04:29;28.30;79.70
50067;DHT22;35952;52.524;13.340;2023-08-21T10:06:58;28.10;83.00
50067;DHT22;35952;52.524;13.340;2023-08-21T10:09:27;28.10;81.40
50067;DHT22;35952;52.524;13.340;2023-08-21T10:11:53;28.10;81.80
50067;DHT22;35952;52.524;13.340;2023-08-21T10:14:21;28.20;80.60
50067;DHT22;35952;52.524;13.340;2023-08-21T10:16:47;28.20;80.60
50067;DHT22;35952;52.524;13.340;2023-08-21T10:19:14;28.20;81.30
50067;DHT22;35952;52.524;13.340;2023-08-21T10:21:40;28.40;79.50
50067;DHT22;35952;52.524;13.340;2023-08-21T10:24:08;28.50;78.70
50067;DHT22;35952;52.524;13.340;2023-08-21T10:26:38;28.50;80.10
50067;DHT22;35952;52.524;13.340;2023-08-21T10:29:05;28.40;79.90
50067;DHT22;35952;52.524;13.340;2023-08-21T10:31:40;28.20;79.80
50067;DHT22;35952;52.524;13.340;2023-08-21T10:34:07;28.00;80.00
50067;DHT22;35952;52.524;13.340;2023-08-21T10:39:19;27.80;80.60
50067;DHT22;35952;52.524;13.340;2023-08-21T10:44:48;27.50;77.40
50067;DHT22;35952;52.524;13.340;2023-08-21T10:47:38;27.40;79.20
50067;DHT22;35952;52.524;13.340;2023-08-21T10:53:36;28.50;77.50
50067;DHT22;35952;52.524;13.340;2023-08-21T10:56:04;28.70;76.90
50067;DHT22;35952;52.524;13.340;2023-08-21T10:58:42;28.60;75.50
50067;DHT22;35952;52.524;13.340;2023-08-21T11:01:08;28.40;77.20
50067;DHT22;35952;52.524;13.340;2023-08-21T11:03:37;28.20;77.80
50067;DHT22;35952;52.524;13.340;2023-08-21T11:06:04;28.20;78.00
50067;DHT22;35952;52.524;13.340;2023-08-21T11:11:35;28.30;78.30
50067;DHT22;35952;52.524;13.340;2023-08-21T11:14:03;28.30;79.10
50067;DHT22;35952;52.524;13.340;2023-08-21T11:16:32;28.10;77.60
50067;DHT22;35952;52.524;13.340;2023-08-21T11:18:57;28.00;79.90
50067;DHT22;35952;52.524;13.340;2023-08-21T11:21:28;27.80;79.30
50067;DHT22;35952;52.524;13.340;2023-08-21T11:23:56;27.70;79.50
50067;DHT22;35952;52.524;13.340;2023-08-21T11:26:22;27.70;77.60
50067;DHT22;35952;52.524;13.340;2023-08-21T11:28:50;27.60;77.70
50067;DHT22;35952;52.524;13.340;2023-08-21T11:31:16;27.60;77.90
50067;DHT22;35952;52.524;13.340;2023-08-21T11:33:41;27.70;80.70
50067;DHT22;35952;52.524;13.340;2023-08-21T11:36:14;27.70;80.30
50067;DHT22;35952;52.524;13.340;2023-08-21T11:38:39;27.80;75.00
50067;DHT22;35952;52.524;13.340;2023-08-21T11:41:06;27.80;74.90
50067;DHT22;35952;52.524;13.340;2023-08-21T11:43:40;27.90;77.60
50067;DHT22;35952;52.524;13.340;2023-08-21T11:46:07;27.90;75.80
50067;DHT22;35952;52.524;13.340;2023-08-21T11:48:33;27.90;75.50
50067;DHT22;35952;52.524;13.340;2023-08-21T11:51:00;27.90;76.50
50067;DHT22;35952;52.524;13.340;2023-08-21T11:55:58;27.90;76.50
50067;DHT22;35952;52.524;13.340;2023-08-21T11:58:26;28.00;75.80
50067;DHT22;35952;52.524;13.340;2023-08-21T12:00:52;28.00;75.40
50067;DHT22;35952;52.524;13.340;2023-08-21T12:03:18;27.90;75.50
50067;DHT22;35952;52.524;13.340;2023-08-21T12:05:44;27.80;76.60
50067;DHT22;35952;52.524;13.340;2023-08-21T12:08:09;27.90;77.40
50067;DHT22;35952;52.524;13.340;2023-08-21T12:10:35;28.00;77.70
50067;DHT22;35952;52.524;13.340;2023-08-21T12:13:01;27.90;77.30
50067;DHT22;35952;52.524;13.340;2023-08-21T12:15:27;27.80;77.90
50067;DHT22;35952;52.524;13.340;2023-08-21T12:17:52;27.60;77.10
50067;DHT22;35952;52.524;13.340;2023-08-21T12:20:18;27.50;77.90
50067;DHT22;35952;52.524;13.340;2023-08-21T12:22:43;27.40;78.80
50067;DHT22;35952;52.524;13.340;2023-08-21T12:25:09;27.40;80.30
50067;DHT22;35952;52.524;13.340;2023-08-21T12:27:35;27.40;80.80
50067;DHT22;35952;52.524;13.340;2023-08-21T12:30:01;27.60;80.80
50067;DHT22;35952;52.524;13.340;2023-08-21T12:32:26;27.90;81.80
50067;DHT22;35952;52.524;13.340;2023-08-21T12:34:52;28.10;81.20
50067;DHT22;35952;52.524;13.340;2023-08-21T12:37:18;28.40;80.30
50067;DHT22;35952;52.524;13.340;2023-08-21T12:39:43;28.60;79.60
50067;DHT22;35952;52.524;13.340;2023-08-21T12:42:09;28.60;75.50
50067;DHT22;35952;52.524;13.340;2023-08-21T12:44:34;28.50;73.50
50067;DHT22;35952;52.524;13.340;2023-08-21T12:47:00;28.30;74.40
50067;DHT22;35952;52.524;13.340;2023-08-21T12:49:26;28.20;75.40
50067;DHT22;35952;52.524;13.340;2023-08-21T12:51:51;28.10;74.60
50067;DHT22;35952;52.524;13.340;2023-08-21T12:54:17;28.20;78.10
50067;DHT22;35952;52.524;13.340;2023-08-21T12:56:42;28.20;71.20
50067;DHT22;35952;52.524;13.340;2023-08-21T12:59:08;28.20;69.80
50067;DHT22;35952;52.524;13.340;2023-08-21T13:01:33;28.40;67.60
50067;DHT22;35952;52.524;13.340;2023-08-21T13:04:00;28.40;66.60
50067;DHT22;35952;52.524;13.340;2023-08-21T13:06:26;28.50;68.40
50067;DHT22;35952;52.524;13.340;2023-08-21T13:08:51;28.60;67.30
50067;DHT22;35952;52.524;13.340;2023-08-21T13:11:17;28.60;65.10
50067;DHT22;35952;52.524;13.340;2023-08-21T13:13:42;28.70;64.60
50067;DHT22;35952;52.524;13.340;2023-08-21T13:16:08;29.00;63.60
50067;DHT22;35952;52.524;13.340;2023-08-21T13:18:34;29.50;64.30
50067;DHT22;35952;52.524;13.340;2023-08-21T13:20:59;29.60;64.30
50067;DHT22;35952;52.524;13.340;2023-08-21T13:23:24;29.40;64.70
50067;DHT22;35952;52.524;13.340;2023-08-21T13:25:50;29.20;65.00
50067;DHT22;35952;52.524;13.340;2023-08-21T13:28:16;29.00;67.20
50067;DHT22;35952;52.524;13.340;2023-08-21T13:30:41;28.80;66.90
50067;DHT22;35952;52.524;13.340;2023-08-21T13:33:07;28.60;65.60
50067;DHT22;35952;52.524;13.340;2023-08-21T13:35:33;28.30;66.60
50067;DHT22;35952;52.524;13.340;2023-08-21T13:37:58;28.20;66.90
50067;DHT22;35952;52.524;13.340;2023-08-21T13:40:24;28.20;68.90
50067;DHT22;35952;52.524;13.340;2023-08-21T13:42:50;28.40;67.30
50067;DHT22;35952;52.524;13.340;2023-08-21T13:45:18;28.50;66.30
50067;DHT22;35952;52.524;13.340;2023-08-21T13:47:45;28.50;64.40
50067;DHT22;35952;52.524;13.340;2023-08-21T13:50:14;28.40;66.00
50067;DHT22;35952;52.524;13.340;2023-08-21T13:52:41;28.50;64.10
50067;DHT22;35952;52.524;13.340;2023-08-21T13:55:08;28.60;65.00
50067;DHT22;35952;52.524;13.340;2023-08-21T13:57:34;28.60;63.30
50067;DHT22;35952;52.524;13.340;2023-08-21T14:00:00;28.70;62.80
50067;DHT22;35952;52.524;13.340;2023-08-21T14:02:26;28.70;62.20
50067;DHT22;35952;52.524;13.340;2023-08-21T14:04:51;28.60;63.90
50067;DHT22;35952;52.524;13.340;2023-08-21T14:07:17;28.30;63.80
50067;DHT22;35952;52.524;13.340;2023-08-21T14:09:43;28.20;65.40
50067;DHT22;35952;52.524;13.340;2023-08-21T14:12:09;28.30;64.80
50067;DHT22;35952;52.524;13.340;2023-08-21T14:14:35;28.40;64.40
50067;DHT22;35952;52.524;13.340;2023-08-21T14:17:01;28.30;65.10
50067;DHT22;35952;52.524;13.340;2023-08-21T14:19:26;28.10;65.30
50067;DHT22;35952;52.524;13.340;2023-08-21T14:21:52;28.00;64.30
50067;DHT22;35952;52.524;13.340;2023-08-21T14:24:17;28.00;64.60
50067;DHT22;35952;52.524;13.340;2023-08-21T14:26:43;28.00;64.00
50067;DHT22;35952;52.524;13.340;2023-08-21T14:29:08;28.20;63.80
50067;DHT22;35952;52.524;13.340;2023-08-21T14:31:34;28.60;61.00
50067;DHT22;35952;52.524;13.340;2023-08-21T14:33:59;29.40;59.50
50067;DHT22;35952;52.524;13.340;2023-08-21T14:36:25;30.80;59.00
50067;DHT22;35952;52.524;13.340;2023-08-21T14:38:50;31.30;56.40
50067;DHT22;35952;52.524;13.340;2023-08-21T14:41:16;31.20;56.50
50067;DHT22;35952;52.524;13.340;2023-08-21T14:43:45;30.70;58.30
50067;DHT22;35952;52.524;13.340;2023-08-21T14:46:10;30.00;57.00
50067;DHT22;35952;52.524;13.340;2023-08-21T14:48:36;29.70;58.10
50067;DHT22;35952;52.524;13.340;2023-08-21T14:51:03;29.60;59.70
50067;DHT22;35952;52.524;13.340;2023-08-21T14:53:29;29.50;58.30
50067;DHT22;35952;52.524;13.340;2023-08-21T14:55:54;29.50;58.90
50067;DHT22;35952;52.524;13.340;2023-08-21T14:58:20;29.40;58.20
50067;DHT22;35952;52.524;13.340;2023-08-21T15:00:45;29.30;59.20
50067;DHT22;35952;52.524;13.340;2023-08-21T15:03:11;29.30;59.20
50067;DHT22;35952;52.524;13.340;2023-08-21T15:05:36;29.20;59.30
50067;DHT22;35952;52.524;13.340;2023-08-21T15:08:02;28.90;59.50
50067;DHT22;35952;52.524;13.340;2023-08-21T15:10:27;28.70;59.90
50067;DHT22;35952;52.524;13.340;2023-08-21T15:12:53;28.50;60.20
50067;DHT22;35952;52.524;13.340;2023-08-21T15:15:19;28.20;61.70
50067;DHT22;35952;52.524;13.340;2023-08-21T15:17:46;28.00;61.40
50067;DHT22;35952;52.524;13.340;2023-08-21T15:20:12;27.80;61.70
50067;DHT22;35952;52.524;13.340;2023-08-21T15:22:40;27.50;63.20
50067;DHT22;35952;52.524;13.340;2023-08-21T15:25:06;27.30;64.70
50067;DHT22;35952;52.524;13.340;2023-08-21T15:27:31;27.20;65.60
50067;DHT22;35952;52.524;13.340;2023-08-21T15:29:57;27.20;66.30
50067;DHT22;35952;52.524;13.340;2023-08-21T15:32:22;27.20;66.10